Time;durP1;ratioP1;P1;durP2;ratioP2;P2;SDS_P1;SDS_P2;PMS_P1;PMS_P2;Temp;Humidity;BMP_temperature;BMP_pressure;BME280_temperature;BME280_humidity;BME280_pressure;Samples;Min_cycle;Max_cycle;Signal;HPM_P1;HPM_P2
2021/05/03 00:01:49;;;;;;;10.10;2.80;;;;;;;5.41;85.10;100134.16;125800;1101;22755;-59
2021/05/03 00:04:18;;;;;;;8.90;2.13;;;;;;;5.40;84.93;100127.84;125857;1101;22897;-58
2021/05/03 00:06:49;;;;;;;8.93;2.30;;;;;;;5.38;85.14;100127.52;125872;1101;22748;-58
2021/05/03 00:09:18;;;;;;;7.07;2.40;;;;;;;5.38;85.11;100138.59;126013;1101;22936;-58
2021/05/03 00:11:47;;;;;;;10.00;3.05;;;;;;;5.38;85.01;100137.83;125830;1101;23801;-60
2021/05/03 00:14:16;;;;;;;7.90;2.27;;;;;;;5.36;85.12;100141.03;125850;1101;22812;-59
2021/05/03 00:16:46;;;;;;;7.47;2.53;;;;;;;5.36;85.14;100135.49;125754;1101;22813;-60
2021/05/03 00:19:15;;;;;;;9.13;2.60;;;;;;;5.35;85.10;100133.96;125894;1101;22776;-59
2021/05/03 00:21:44;;;;;;;11.17;3.03;;;;;;;5.37;85.10;100133.50;125976;1096;26238;-61
2021/05/03 00:24:14;;;;;;;10.73;3.03;;;;;;;5.36;85.28;100135.49;125840;1101;22734;-60
2021/05/03 00:26:44;;;;;;;9.05;2.48;;;;;;;5.36;85.25;100132.72;125968;1096;22819;-60
2021/05/03 00:29:15;;;;;;;11.98;3.30;;;;;;;5.36;85.18;100135.49;125848;1097;22810;-60
2021/05/03 00:31:44;;;;;;;12.17;3.87;;;;;;;5.37;85.34;100148.13;125888;1101;23016;-59
2021/05/03 00:34:13;;;;;;;12.07;3.90;;;;;;;5.36;85.33;100137.51;125893;1097;26261;-60
2021/05/03 00:36:42;;;;;;;12.40;4.70;;;;;;;5.37;85.54;100150.89;125996;1101;23457;-60
2021/05/03 00:39:12;;;;;;;13.20;4.30;;;;;;;5.37;85.64;100147.34;126385;1101;23798;-61
2021/05/03 00:41:42;;;;;;;14.28;4.25;;;;;;;5.37;85.51;100144.58;126374;1101;24319;-61
2021/05/03 00:44:12;;;;;;;14.60;5.13;;;;;;;5.38;85.61;100146.89;126301;1101;22756;-61
2021/05/03 00:46:42;;;;;;;16.90;5.87;;;;;;;5.38;85.60;100146.89;126178;1101;22752;-60
2021/05/03 00:49:11;;;;;;;18.95;6.13;;;;;;;5.41;85.80;100151.55;126300;1101;22735;-60
2021/05/03 00:51:40;;;;;;;14.93;5.97;;;;;;;5.42;85.92;100155.10;126193;1101;24377;-60
2021/05/03 00:54:09;;;;;;;13.73;4.40;;;;;;;5.42;85.80;100150.31;126214;1101;22723;-61
2021/05/03 00:56:39;;;;;;;12.80;4.67;;;;;;;5.44;85.86;100155.42;126169;1101;22725;-61
2021/05/03 00:59:09;;;;;;;17.33;6.17;;;;;;;5.45;85.81;100159.73;126310;1101;24426;-61
2021/05/03 01:01:38;;;;;;;15.90;5.13;;;;;;;5.47;85.92;100162.83;126226;1101;22734;-61
2021/05/03 01:04:08;;;;;;;13.70;5.47;;;;;;;5.46;86.00;100150.97;126181;1101;22789;-59
2021/05/03 01:06:37;;;;;;;15.80;5.70;;;;;;;5.49;85.90;100158.39;126309;1101;22725;-59
2021/05/03 01:09:07;;;;;;;15.57;6.07;;;;;;;5.49;85.77;100152.86;126166;1101;22732;-61
2021/05/03 01:11:37;;;;;;;17.30;6.38;;;;;;;5.52;85.89;100156.73;126227;1101;26928;-60
2021/05/03 01:14:07;;;;;;;17.35;6.55;;;;;;;5.53;85.86;100156.28;126162;1096;26231;-60
2021/05/03 01:16:36;;;;;;;;;;;;;;;5.54;85.75;100149.54;126314;1101;22749;-61
2021/05/03 01:19:06;;;;;;;15.03;5.57;;;;;;;5.54;85.75;100146.77;126212;1096;24437;-62
2021/05/03 01:21:35;;;;;;;16.30;6.60;;;;;;;5.55;85.78;100151.07;126397;1101;22734;-61
2021/05/03 01:24:07;;;;;;;18.05;6.00;;;;;;;5.56;85.62;100154.63;126230;1101;22875;-61
2021/05/03 01:26:36;;;;;;;16.77;6.67;;;;;;;5.56;85.75;100152.63;126276;1101;22748;-58
2021/05/03 01:29:05;;;;;;;17.00;6.70;;;;;;;5.58;85.71;100154.95;126263;1101;22755;-61
2021/05/03 01:31:37;;;;;;;17.80;7.50;;;;;;;5.58;85.71;100161.27;126379;1096;26347;-59
2021/05/03 01:34:09;;;;;;;20.03;7.93;;;;;;;5.60;85.71;100158.82;126280;1101;22890;-61
2021/05/03 01:36:40;;;;;;;19.70;8.40;;;;;;;5.60;85.34;100158.82;126182;1096;26369;-60
2021/05/03 01:39:11;;;;;;;18.17;7.93;;;;;;;5.60;85.66;100150.52;126171;1101;22756;-61
2021/05/03 01:41:40;;;;;;;20.10;8.55;;;;;;;5.61;85.69;100163.13;126295;1096;22958;-59
2021/05/03 01:44:11;;;;;;;15.67;5.37;;;;;;;5.61;85.82;100163.13;126287;1101;22778;-59
2021/05/03 01:46:41;;;;;;;18.77;7.50;;;;;;;5.63;85.68;100160.68;126203;1101;22738;-61
2021/05/03 01:49:11;;;;;;;16.88;7.18;;;;;;;5.64;85.67;100155.92;126226;1101;24408;-60
2021/05/03 01:51:40;;;;;;;15.80;6.43;;;;;;;5.64;85.65;100145.63;126151;1101;24190;-59
2021/05/03 01:54:10;;;;;;;16.10;6.00;;;;;;;5.66;85.72;100154.27;126222;1097;22897;-59
2021/05/03 01:56:41;;;;;;;19.73;6.33;;;;;;;5.67;85.42;100155.02;126142;1101;23149;-61
2021/05/03 01:59:10;;;;;;;15.97;6.43;;;;;;;5.67;85.43;100158.56;126181;1096;22738;-61
2021/05/03 02:01:41;;;;;;;14.93;6.45;;;;;;;5.67;85.24;100150.25;126191;1097;26255;-59
2021/05/03 02:04:11;;;;;;;13.65;4.78;;;;;;;5.68;84.93;100151.03;126308;1101;22725;-61
2021/05/03 02:06:40;;;;;;;13.50;5.40;;;;;;;5.68;84.91;100146.28;126198;1097;22855;-59
2021/05/03 02:09:12;;;;;;;13.90;5.13;;;;;;;5.68;84.70;100151.03;126123;1101;22748;-61
2021/05/03 02:11:41;;;;;;;11.23;3.63;;;;;;;5.67;84.57;100141.95;126330;1101;22732;-61
2021/05/03 02:14:12;;;;;;;10.68;3.95;;;;;;;5.70;84.59;100148.59;126177;1101;22769;-61
2021/05/03 02:16:42;;;;;;;10.83;4.10;;;;;;;5.69;84.62;100147.81;126183;1101;22897;-61
2021/05/03 02:19:12;;;;;;;12.00;4.00;;;;;;;5.68;84.65;100143.51;126180;1101;22752;-60
2021/05/03 02:21:41;;;;;;;12.87;4.00;;;;;;;5.68;84.08;100149.05;126122;1097;26226;-59
2021/05/03 02:24:12;;;;;;;10.60;3.45;;;;;;;5.70;84.26;100148.59;126372;1101;23240;-59
2021/05/03 02:26:41;;;;;;;10.15;3.28;;;;;;;5.70;84.15;100148.59;126300;1101;24426;-61
2021/05/03 02:29:10;;;;;;;14.55;4.45;;;;;;;5.70;84.33;100151.36;126195;1101;22738;-59
2021/05/03 02:31:39;;;;;;;10.63;2.90;;;;;;;5.69;84.09;100149.80;126261;1101;22738;-61
2021/05/03 02:34:09;;;;;;;11.43;3.90;;;;;;;5.69;83.99;100150.58;126157;1101;22728;-61
2021/05/03 02:36:38;;;;;;;;;;;;;;;5.68;84.00;100149.05;126218;1097;26092;-61
2021/05/03 02:39:08;;;;;;;12.20;4.20;;;;;;;5.69;84.03;100149.80;126249;1101;23541;-61
2021/05/03 02:41:37;;;;;;;10.83;4.03;;;;;;;5.68;83.84;100146.28;126268;1101;22830;-61
2021/05/03 02:44:08;;;;;;;11.83;4.80;;;;;;;5.67;83.88;100146.70;126055;1096;25746;-61
2021/05/03 02:46:37;;;;;;;14.00;4.80;;;;;;;5.67;83.92;100147.48;126149;1096;26194;-61
2021/05/03 02:49:08;;;;;;;13.03;4.67;;;;;;;5.66;83.71;100164.56;126202;1101;22744;-61
2021/05/03 02:51:37;;;;;;;12.30;4.10;;;;;;;5.66;83.72;100159.80;126237;1101;24143;-60
2021/05/03 02:54:08;;;;;;;12.60;3.63;;;;;;;5.66;83.75;100162.57;129997;1101;22643;-62
2021/05/03 02:56:39;;;;;;;13.50;5.30;;;;;;;5.65;83.55;100155.47;126439;1097;25723;-61
2021/05/03 02:59:08;;;;;;;15.50;4.93;;;;;;;5.67;83.51;100180.72;126272;1097;25742;-60
2021/05/03 03:01:37;;;;;;;12.37;4.70;;;;;;;5.67;83.39;100174.40;126239;1097;22692;-61
2021/05/03 03:04:07;;;;;;;12.53;4.87;;;;;;;5.67;83.38;100164.10;126229;1095;27154;-60
2021/05/03 03:06:36;;;;;;;12.85;5.05;;;;;;;5.66;83.32;100184.73;126262;1101;22763;-61
2021/05/03 03:09:07;;;;;;;14.63;4.57;;;;;;;5.66;83.24;100175.64;126251;1096;22756;-62
2021/05/03 03:11:37;;;;;;;11.90;4.40;;;;;;;5.65;83.19;100176.84;126117;1101;23241;-59
2021/05/03 03:14:06;;;;;;;11.40;4.20;;;;;;;5.63;83.07;100174.53;126157;1101;22712;-60
2021/05/03 03:16:36;;;;;;;10.25;3.90;;;;;;;5.62;83.20;100173.00;126217;1097;22705;-61
2021/05/03 03:19:06;;;;;;;11.73;4.50;;;;;;;5.60;82.96;100180.20;126151;1096;28330;-62
2021/05/03 03:21:36;;;;;;;11.70;4.60;;;;;;;5.57;83.11;100184.63;126145;1096;22728;-61
2021/05/03 03:24:05;;;;;;;;;;;;;;;5.55;82.93;100187.06;126102;1101;22741;-62
2021/05/03 03:26:34;;;;;;;13.70;3.97;;;;;;;5.54;82.79;100181.98;126154;1096;25705;-60
2021/05/03 03:29:05;;;;;;;12.23;5.18;;;;;;;5.53;83.03;100186.74;126092;1101;22800;-60
2021/05/03 03:31:35;;;;;;;11.07;3.60;;;;;;;5.52;83.11;100193.52;126256;1097;22833;-59
2021/05/03 03:34:04;;;;;;;11.63;4.53;;;;;;;5.52;83.03;100206.58;126211;1101;22771;-61
2021/05/03 03:36:34;;;;;;;9.53;3.33;;;;;;;5.52;82.70;100199.05;126177;1102;22790;-61
2021/05/03 03:39:05;;;;;;;11.27;3.60;;;;;;;5.53;82.72;100205.34;126214;1101;22695;-59
2021/05/03 03:41:35;;;;;;;10.20;3.83;;;;;;;5.52;82.75;100195.50;126281;1101;22731;-61
2021/05/03 03:44:06;;;;;;;11.50;3.65;;;;;;;5.51;83.00;100205.80;126411;1101;22730;-61
2021/05/03 03:46:35;;;;;;;12.73;3.47;;;;;;;5.53;82.48;100208.11;126400;1101;22751;-60
2021/05/03 03:49:06;;;;;;;9.70;2.97;;;;;;;5.52;82.49;100207.36;126096;1102;22728;-61
2021/05/03 03:51:34;;;;;;;;;;;;;;;5.53;82.05;100228.27;126384;1101;22945;-59
2021/05/03 03:54:07;;;;;;;11.27;2.77;;;;;;;5.52;82.04;100228.73;126314;1101;21464;-59
2021/05/03 03:56:36;;;;;;;9.57;2.13;;;;;;;5.53;82.02;100233.03;126296;1101;22735;-61
2021/05/03 03:59:09;;;;;;;10.27;2.60;;;;;;;5.52;82.21;100237.03;126289;1101;22758;-62
2021/05/03 04:01:38;;;;;;;8.20;2.50;;;;;;;5.51;82.21;100236.25;126221;1101;22741;-62
2021/05/03 04:04:16;;;;;;;10.03;2.73;;;;;;;5.51;82.06;100238.23;126156;1101;22755;-60
2021/05/03 04:06:50;;;;;;;6.23;2.17;;;;;;;5.50;81.86;100240.23;126242;1101;22731;-60
2021/05/03 04:09:29;;;;;;;11.53;2.63;;;;;;;5.51;81.69;100241.80;126402;1097;23463;-60
2021/05/03 04:26:01;;;;;;;9.55;2.10;;;;;;;5.46;81.59;100264.48;125016;1111;22915;-62
2021/05/03 04:28:31;;;;;;;9.20;2.63;;;;;;;5.46;81.39;100272.79;125056;1110;22929;-61
2021/05/03 04:31:00;;;;;;;7.80;2.70;;;;;;;5.45;81.44;100273.24;124909;1110;22796;-61
2021/05/03 04:33:31;;;;;;;11.07;3.30;;;;;;;5.44;81.33;100272.46;125252;1110;22843;-60
2021/05/03 04:36:01;;;;;;;8.43;2.70;;;;;;;5.44;81.32;100283.53;125058;1103;22770;-61
2021/05/03 04:38:30;;;;;;;8.63;2.78;;;;;;;5.44;81.06;100280.77;125149;1110;22905;-60
2021/05/03 04:40:59;;;;;;;9.87;2.53;;;;;;;5.44;81.29;100280.02;124943;1108;23492;-62
2021/05/03 04:43:29;;;;;;;8.03;2.70;;;;;;;5.45;81.38;100290.64;124991;1103;26269;-61
2021/05/03 04:45:59;;;;;;;10.47;3.37;;;;;;;5.46;81.02;100310.80;125026;1103;25717;-60
2021/05/03 04:48:28;;;;;;;7.85;2.35;;;;;;;5.46;80.89;100297.70;125178;1110;22760;-60
2021/05/03 04:50:58;;;;;;;10.20;2.73;;;;;;;5.45;80.69;100304.48;125149;1108;22758;-60
2021/05/03 04:53:28;;;;;;;10.20;2.53;;;;;;;5.45;80.58;100290.64;125496;1103;25694;-61
2021/05/03 04:55:57;;;;;;;8.75;3.43;;;;;;;5.45;80.63;100306.47;125839;1104;22907;-59
2021/05/03 04:58:27;;;;;;;13.30;3.60;;;;;;;5.45;80.08;100304.48;125995;1099;26188;-61
2021/05/03 05:00:56;;;;;;;7.93;2.77;;;;;;;5.44;79.90;100308.45;126103;1105;22878;-60
2021/05/03 05:03:25;;;;;;;8.60;2.65;;;;;;;5.44;80.29;100311.22;126089;1096;23260;-61
2021/05/03 05:05:55;;;;;;;10.13;3.37;;;;;;;5.44;80.15;100322.30;126265;1097;22734;-61
2021/05/03 05:08:24;;;;;;;9.38;3.48;;;;;;;5.43;80.46;100309.69;126236;1101;22747;-60
2021/05/03 05:10:54;;;;;;;8.37;3.60;;;;;;;5.42;80.67;100316.42;126278;1101;22882;-60
2021/05/03 05:13:24;;;;;;;8.40;3.30;;;;;;;5.42;80.44;100307.37;126414;1101;22822;-61
2021/05/03 05:15:53;;;;;;;9.08;2.88;;;;;;;5.42;80.67;100312.91;126492;1101;22810;-61
2021/05/03 05:18:22;;;;;;;11.30;3.40;;;;;;;5.41;80.47;100328.73;126056;1101;22731;-60
2021/05/03 05:20:52;;;;;;;6.05;1.90;;;;;;;5.42;79.11;100323.98;126345;1096;24265;-60
2021/05/03 05:23:22;;;;;;;10.07;2.60;;;;;;;5.43;79.66;100326.30;126368;1101;24428;-60
2021/05/03 05:25:51;;;;;;;9.03;2.63;;;;;;;5.47;79.91;100326.18;126304;1096;23679;-60
2021/05/03 05:28:20;;;;;;;7.45;2.00;;;;;;;5.49;79.86;100332.83;126280;1096;22816;-60
2021/05/03 05:30:50;;;;;;;6.47;1.80;;;;;;;5.52;79.17;100342.26;126156;1101;23820;-62
2021/05/03 05:33:19;;;;;;;10.97;3.00;;;;;;;5.54;79.02;100354.45;126325;1096;22799;-61
2021/05/03 05:35:48;;;;;;;7.93;2.20;;;;;;;5.57;79.12;100353.55;126313;1101;22733;-60
2021/05/03 05:38:17;;;;;;;10.80;3.57;;;;;;;5.60;79.70;100352.68;125956;1101;22731;-61
2021/05/03 05:40:47;;;;;;;10.07;2.67;;;;;;;5.64;79.71;100347.02;125817;1101;22904;-61
2021/05/03 05:43:16;;;;;;;8.40;2.50;;;;;;;5.66;79.52;100344.58;125939;1096;22740;-60
2021/05/03 05:45:46;;;;;;;10.00;2.30;;;;;;;5.66;79.19;100359.22;126441;1101;22735;-60
2021/05/03 05:48:15;;;;;;;7.60;2.50;;;;;;;5.68;79.35;100350.45;126545;1101;25505;-60
2021/05/03 05:50:45;;;;;;;8.10;2.77;;;;;;;5.72;79.50;100351.91;126410;1097;22833;-60
2021/05/03 05:53:15;;;;;;;8.80;2.87;;;;;;;5.79;79.31;100352.89;126564;1096;25726;-61
2021/05/03 05:55:44;;;;;;;8.53;2.80;;;;;;;5.84;79.19;100363.43;126350;1096;22731;-60
2021/05/03 05:58:14;;;;;;;6.90;2.80;;;;;;;5.88;79.02;100369.64;126465;1101;22715;-61
2021/05/03 06:00:44;;;;;;;8.75;2.35;;;;;;;5.91;79.25;100369.55;126452;1101;22749;-60
2021/05/03 06:03:13;;;;;;;10.33;2.27;;;;;;;5.93;78.53;100369.88;126409;1096;25825;-61
2021/05/03 06:05:42;;;;;;;9.20;2.87;;;;;;;5.92;78.30;100368.31;126304;1097;22898;-61
2021/05/03 06:08:11;;;;;;;8.13;2.50;;;;;;;5.94;78.22;100381.74;126356;1101;22748;-59
2021/05/03 06:10:41;;;;;;;7.57;1.83;;;;;;;5.97;78.34;100389.15;126397;1101;22752;-60
2021/05/03 06:13:10;;;;;;;6.40;1.70;;;;;;;5.98;77.84;100391.47;126403;1101;22735;-61
2021/05/03 06:15:40;;;;;;;7.47;1.93;;;;;;;6.00;77.80;100396.59;126428;1101;22725;-60
2021/05/03 06:18:11;;;;;;;8.85;2.08;;;;;;;6.03;77.54;100409.54;126408;1101;25267;-62
2021/05/03 06:20:41;;;;;;;6.53;2.00;;;;;;;6.06;77.93;100403.88;126530;1101;22752;-60
2021/05/03 06:23:13;;;;;;;4.93;1.60;;;;;;;6.10;78.19;100415.66;126408;1101;22771;-62
2021/05/03 06:25:44;;;;;;;4.65;1.35;;;;;;;6.10;77.39;100406.55;126446;1101;22920;-62
2021/05/03 06:28:14;;;;;;;6.47;1.43;;;;;;;6.11;77.57;100413.64;126552;1101;24120;-62
2021/05/03 06:30:45;;;;;;;6.15;1.50;;;;;;;6.11;77.51;100413.64;126461;1097;22824;-61
2021/05/03 06:33:15;;;;;;;6.17;1.80;;;;;;;6.13;77.17;100416.73;126360;1096;22745;-60
2021/05/03 06:35:44;;;;;;;5.13;1.33;;;;;;;6.15;77.27;100436.47;126432;1096;26337;-60
2021/05/03 06:38:14;;;;;;;5.57;1.40;;;;;;;6.18;76.88;100425.30;126479;1101;22700;-59
2021/05/03 06:40:44;;;;;;;5.43;1.30;;;;;;;6.21;76.95;100420.83;126567;1096;22782;-59
2021/05/03 06:43:13;;;;;;;3.27;1.10;;;;;;;6.29;76.89;100441.59;126341;1097;22755;-59
2021/05/03 06:45:43;;;;;;;5.07;1.27;;;;;;;6.30;77.00;100432.81;126354;1097;24691;-60
2021/05/03 06:48:13;;;;;;;4.68;1.10;;;;;;;6.33;76.92;100437.45;126326;1101;22806;-59
2021/05/03 06:50:45;;;;;;;5.08;1.40;;;;;;;6.38;76.71;100436.13;126612;1101;22734;-59
2021/05/03 06:53:15;;;;;;;3.67;0.90;;;;;;;6.43;76.49;100441.13;126401;1101;22868;-58
2021/05/03 06:55:46;;;;;;;6.95;1.03;;;;;;;6.43;76.14;100441.13;126410;1101;22897;-59
2021/05/03 06:58:16;;;;;;;4.17;1.00;;;;;;;6.50;76.22;100440.88;126436;1096;27132;-60
2021/05/03 07:00:45;;;;;;;4.97;1.00;;;;;;;6.60;76.40;100444.53;126270;1096;26225;-60
2021/05/03 07:03:15;;;;;;;4.20;0.80;;;;;;;6.65;74.53;100458.61;126282;1101;22753;-60
2021/05/03 07:05:45;;;;;;;3.65;1.20;;;;;;;6.65;74.41;100447.51;126067;1096;26359;-62
2021/05/03 07:08:13;;;;;;;;;;;;;;;6.65;74.56;100450.28;125730;1101;22748;-64
2021/05/03 07:10:46;;;;;;;5.90;1.03;;;;;;;6.63;74.57;100455.50;125974;1101;23128;-62
2021/05/03 07:13:16;;;;;;;6.35;1.00;;;;;;;6.61;74.49;100451.62;125951;1096;26504;-63
2021/05/03 07:15:46;;;;;;;5.13;0.83;;;;;;;6.62;74.53;100459.48;125759;1096;28640;-63
2021/05/03 07:18:15;;;;;;;4.43;0.90;;;;;;;6.70;74.07;100448.95;125820;1096;26748;-63
2021/05/03 07:20:44;;;;;;;8.53;0.90;;;;;;;6.76;74.25;100453.48;125886;1096;22728;-63
2021/05/03 07:23:14;;;;;;;5.77;0.80;;;;;;;6.87;75.01;100450.35;125871;1101;22897;-67
2021/05/03 07:25:44;;;;;;;5.38;0.80;;;;;;;6.91;74.15;100454.53;125961;1101;22809;-65
2021/05/03 07:28:13;;;;;;;5.03;0.80;;;;;;;6.95;73.96;100454.43;125877;1101;22731;-66
2021/05/03 07:30:43;;;;;;;3.43;0.60;;;;;;;7.03;73.19;100472.39;125701;1095;28817;-64
2021/05/03 07:33:13;;;;;;;6.80;0.80;;;;;;;7.06;73.27;100461.16;126099;1101;22749;-65
2021/05/03 07:35:43;;;;;;;5.50;1.00;;;;;;;7.10;72.49;100464.58;125899;1096;23320;-63
2021/05/03 07:38:13;;;;;;;4.43;0.95;;;;;;;7.13;72.84;100460.91;125880;1096;27157;-64
2021/05/03 07:40:42;;;;;;;5.70;0.98;;;;;;;7.22;72.55;100463.75;125953;1101;22869;-63
2021/05/03 07:43:12;;;;;;;5.10;0.87;;;;;;;7.34;72.69;100465.69;125767;1097;23035;-60
2021/05/03 07:45:43;;;;;;;7.20;0.70;;;;;;;7.42;69.99;100468.22;125882;1101;22752;-65
2021/05/03 07:48:13;;;;;;;7.97;0.90;;;;;;;7.46;69.98;100464.09;125987;1101;22773;-62
2021/05/03 07:50:43;;;;;;;3.00;0.63;;;;;;;7.57;71.01;100472.03;126210;1101;22878;-61
2021/05/03 07:53:12;;;;;;;4.75;0.70;;;;;;;7.62;70.04;100465.88;126113;1101;22749;-61
2021/05/03 07:55:42;;;;;;;2.50;0.63;;;;;;;7.69;70.50;100480.30;126029;1101;22753;-60
2021/05/03 07:58:11;;;;;;;7.17;0.80;;;;;;;7.78;69.65;100474.03;125978;1101;24561;-62
2021/05/03 08:00:41;;;;;;;5.23;0.70;;;;;;;7.80;69.39;100486.22;125925;1101;22901;-61
2021/05/03 08:03:10;;;;;;;2.87;0.60;;;;;;;7.81;69.37;100481.44;126042;1097;22728;-62
2021/05/03 08:05:40;;;;;;;3.63;0.70;;;;;;;7.83;69.55;100488.11;126150;1101;22757;-60
2021/05/03 08:08:09;;;;;;;3.20;0.80;;;;;;;7.84;69.18;100502.78;126132;1096;22765;-60
2021/05/03 08:10:39;;;;;;;2.67;0.70;;;;;;;7.90;67.33;100492.63;126271;1101;23174;-60
2021/05/03 08:13:10;;;;;;;8.93;0.80;;;;;;;8.00;69.39;100497.00;126206;1101;22803;-61
2021/05/03 08:15:40;;;;;;;5.23;0.80;;;;;;;8.14;70.03;100490.89;126233;1102;22785;-61
2021/05/03 08:18:09;;;;;;;7.10;0.80;;;;;;;8.24;68.14;100492.48;126062;1101;22731;-59
2021/05/03 08:20:39;;;;;;;4.73;0.67;;;;;;;8.26;67.27;100501.17;126171;1101;22901;-60
2021/05/03 08:23:10;;;;;;;2.85;0.53;;;;;;;8.34;67.03;100507.25;126337;1101;22751;-59
2021/05/03 08:25:39;;;;;;;3.08;0.60;;;;;;;8.31;66.70;100508.93;126257;1102;22725;-60
2021/05/03 08:28:09;;;;;;;5.60;0.65;;;;;;;8.32;67.21;100499.34;130109;1101;22498;-62
2021/05/03 08:30:38;;;;;;;2.27;0.57;;;;;;;8.35;66.28;100511.56;126477;1097;27225;-60
2021/05/03 08:33:08;;;;;;;4.75;0.70;;;;;;;8.40;66.70;100520.08;126135;1101;22796;-61
2021/05/03 08:35:38;;;;;;;3.10;0.60;;;;;;;8.48;66.93;100498.33;126523;1101;22740;-59
2021/05/03 08:38:08;;;;;;;6.00;0.50;;;;;;;8.52;66.34;100510.09;126750;1101;22808;-60
2021/05/03 08:40:40;;;;;;;2.23;0.60;;;;;;;8.57;66.04;100521.39;128338;1101;23296;-61
2021/05/03 08:43:10;;;;;;;3.57;0.50;;;;;;;8.53;64.72;100511.63;128061;1101;22900;-60
2021/05/03 08:45:41;;;;;;;2.47;0.60;;;;;;;8.56;64.75;100532.98;126511;1096;27406;-59
2021/05/03 08:48:17;;;;;;;3.50;0.53;;;;;;;8.64;64.14;100518.33;126470;1101;23602;-58
2021/05/03 08:50:59;;;;;;;4.47;0.57;;;;;;;8.63;64.42;100527.90;126471;1101;22851;-60
2021/05/03 08:53:31;;;;;;;3.50;0.43;;;;;;;8.55;64.56;100523.86;126649;1101;22896;-60
2021/05/03 08:56:01;;;;;;;5.67;0.77;;;;;;;8.48;64.67;100526.16;126588;1101;23224;-60
2021/05/03 08:58:35;;;;;;;3.78;0.60;;;;;;;8.38;63.93;100530.89;126636;1101;22758;-59
2021/05/03 09:01:05;;;;;;;1.40;0.47;;;;;;;8.32;63.76;100532.72;126499;1101;25535;-59
2021/05/03 09:03:37;;;;;;;3.75;0.75;;;;;;;8.31;64.13;100533.97;126588;1101;22695;-58
2021/05/03 09:06:10;;;;;;;3.00;0.57;;;;;;;8.28;62.86;100534.86;126566;1094;27432;-60
2021/05/03 09:08:40;;;;;;;3.80;0.60;;;;;;;8.23;62.67;100543.78;126477;1101;22753;-59
2021/05/03 09:11:15;;;;;;;6.60;0.70;;;;;;;8.18;63.74;100539.59;126480;1096;27504;-59
2021/05/03 09:13:47;;;;;;;2.80;0.50;;;;;;;8.21;63.41;100535.13;126426;1096;26225;-59
2021/05/03 09:16:20;;;;;;;3.57;0.57;;;;;;;8.29;63.85;100530.86;126477;1101;22719;-59
2021/05/03 09:18:51;;;;;;;3.33;0.60;;;;;;;8.41;62.42;100529.98;126321;1096;22754;-59
2021/05/03 09:21:26;;;;;;;3.43;0.57;;;;;;;8.41;59.51;100537.55;126463;1101;22761;-58
2021/05/03 09:24:09;;;;;;;4.70;0.60;;;;;;;8.33;59.68;100536.28;126490;1101;22768;-59
2021/05/03 09:26:44;;;;;;;4.87;0.70;;;;;;;8.25;61.62;100529.42;126524;1101;24456;-59
2021/05/03 09:29:34;;;;;;;2.20;0.50;;;;;;;8.25;61.35;100533.01;126615;1097;26200;-60
2021/05/03 09:32:11;;;;;;;2.15;0.40;;;;;;;8.37;59.53;100526.57;126247;1101;22748;-59
2021/05/03 09:34:43;;;;;;;3.00;0.50;;;;;;;8.53;60.63;100517.97;126396;1101;22859;-58
2021/05/03 09:37:21;;;;;;;2.33;0.47;;;;;;;8.69;59.49;100522.52;126542;1101;22740;-59
2021/05/03 09:40:03;;;;;;;3.83;0.70;;;;;;;8.75;61.33;100529.03;126291;1101;22756;-59
2021/05/03 09:42:53;;;;;;;5.70;0.70;;;;;;;8.69;60.29;100533.66;126414;1097;22794;-59
2021/05/03 09:45:24;;;;;;;1.87;0.40;;;;;;;8.59;59.66;100532.83;126278;1096;26204;-58
2021/05/03 09:47:56;;;;;;;2.57;0.50;;;;;;;8.51;59.83;100525.22;126302;1101;24554;-59
2021/05/03 09:50:27;;;;;;;2.10;0.50;;;;;;;8.45;60.37;100527.84;126326;1101;22780;-59
2021/05/03 09:53:11;;;;;;;4.47;0.63;;;;;;;8.49;60.09;100534.03;126273;1101;22735;-59
2021/05/03 09:55:42;;;;;;;2.67;0.43;;;;;;;8.57;60.46;100540.87;126346;1101;22897;-60
2021/05/03 09:58:17;;;;;;;4.23;0.60;;;;;;;8.66;60.47;100545.69;126322;1101;22759;-59
2021/05/03 10:00:49;;;;;;;5.93;0.73;;;;;;;8.71;61.27;100542.33;126226;1097;22790;-59
2021/05/03 10:03:38;;;;;;;2.03;0.47;;;;;;;8.70;60.27;100546.33;126262;1101;22837;-59
2021/05/03 10:06:11;;;;;;;5.10;0.60;;;;;;;8.58;60.47;100544.43;126220;1101;22901;-59
2021/05/03 10:08:45;;;;;;;2.57;0.60;;;;;;;8.43;59.84;100552.56;126075;1097;22789;-58
2021/05/03 10:11:16;;;;;;;1.57;0.57;;;;;;;8.31;60.42;100547.09;126246;1101;25517;-59
2021/05/03 10:13:48;;;;;;;3.97;0.70;;;;;;;8.22;61.04;100553.34;126235;1096;22849;-58
2021/05/03 10:16:19;;;;;;;5.50;0.60;;;;;;;8.18;61.30;100549.92;126312;1101;24274;-59
2021/05/03 10:18:49;;;;;;;3.95;0.80;;;;;;;8.13;61.53;100550.53;126072;1096;22744;-59
2021/05/03 10:21:19;;;;;;;6.45;0.70;;;;;;;8.10;61.31;100549.43;126268;1101;22790;-59
2021/05/03 10:23:49;;;;;;;5.10;0.80;;;;;;;8.09;61.37;100558.20;126188;1101;22790;-59
2021/05/03 10:26:18;;;;;;;3.48;0.70;;;;;;;8.08;62.12;100559.45;126245;1096;27680;-59
2021/05/03 10:28:53;;;;;;;3.58;0.80;;;;;;;8.10;62.01;100554.99;126220;1101;22820;-58
2021/05/03 10:31:24;;;;;;;2.97;0.60;;;;;;;8.12;61.09;100555.31;126103;1101;22895;-59
2021/05/03 10:33:54;;;;;;;1.50;0.50;;;;;;;8.11;58.58;100567.66;126263;1101;22877;-58
2021/05/03 10:36:35;;;;;;;1.25;0.40;;;;;;;8.09;59.01;100558.98;126290;1101;22897;-60
2021/05/03 10:39:38;;;;;;;3.77;0.70;;;;;;;8.08;59.88;100562.23;126215;1101;24231;-58
2021/05/03 10:42:11;;;;;;;4.45;0.90;;;;;;;8.10;60.24;100554.99;126152;1101;23026;-60
2021/05/03 10:45:13;;;;;;;3.55;0.80;;;;;;;8.17;60.41;100553.95;126118;1101;25613;-58
2021/05/03 10:47:45;;;;;;;6.33;1.00;;;;;;;8.26;60.80;100567.14;126184;1096;27388;-59
2021/05/03 10:50:44;;;;;;;3.85;0.70;;;;;;;8.36;60.52;100565.98;126007;1097;26883;-60
2021/05/03 10:53:35;;;;;;;1.63;0.60;;;;;;;8.53;60.08;100562.50;126329;1101;22748;-60
2021/05/03 10:56:06;;;;;;;3.50;0.60;;;;;;;8.75;59.89;100563.19;126043;1096;25976;-60
2021/05/03 10:59:09;;;;;;;3.23;0.57;;;;;;;8.87;59.68;100565.11;126196;1101;22815;-59
2021/05/03 11:02:10;;;;;;;3.50;0.65;;;;;;;9.01;59.08;100558.17;126414;1101;25575;-61
2021/05/03 11:05:00;;;;;;;1.67;0.50;;;;;;;9.13;57.82;100551.69;126128;1101;22793;-60
2021/05/03 11:07:29;;;;;;;;;;;;;;;9.26;57.65;100548.77;126275;1101;22748;-60
2021/05/03 11:09:59;;;;;;;1.80;0.40;;;;;;;9.39;57.26;100541.84;126137;1102;21462;-59
2021/05/03 11:12:31;;;;;;;4.35;0.60;;;;;;;9.43;57.59;100541.67;126341;1101;22838;-60
2021/05/03 11:15:19;;;;;;;3.10;0.50;;;;;;;9.48;58.34;100541.82;126112;1101;24546;-59
2021/05/03 11:18:22;;;;;;;2.30;0.60;;;;;;;9.49;58.11;100559.33;126215;1101;22763;-59
2021/05/03 11:21:08;;;;;;;2.13;0.50;;;;;;;9.31;57.72;100562.10;125861;1100;22741;-59
2021/05/03 11:23:38;;;;;;;3.63;0.60;;;;;;;9.05;58.16;100558.80;126124;1104;22819;-59
2021/05/03 11:26:25;;;;;;;2.13;0.40;;;;;;;8.93;58.49;100566.05;125874;1104;22768;-59
2021/05/03 11:29:07;;;;;;;4.83;0.60;;;;;;;8.87;58.77;100553.97;126145;1105;22818;-59
2021/05/03 11:31:38;;;;;;;2.37;0.43;;;;;;;8.88;58.91;100552.72;125916;1105;22772;-58
2021/05/03 11:34:18;;;;;;;5.25;0.50;;;;;;;8.95;58.99;100554.45;125873;1104;24143;-60
2021/05/03 11:36:55;;;;;;;4.20;0.50;;;;;;;9.05;58.69;100558.02;125804;1100;24420;-59
2021/05/03 11:39:41;;;;;;;3.93;0.57;;;;;;;9.14;58.08;100556.05;125788;1104;23031;-59
2021/05/03 11:44:59;;;;;;;4.03;0.60;;;;;;;9.25;58.19;100552.81;125832;1104;23176;-59
2021/05/03 11:47:30;;;;;;;2.47;0.60;;;;;;;9.29;58.18;100564.58;125941;1100;25736;-59
2021/05/03 11:50:01;;;;;;;2.20;0.60;;;;;;;9.26;59.22;100554.34;125929;1104;22761;-59
2021/05/03 11:52:33;;;;;;;2.40;0.70;;;;;;;9.22;59.81;100562.08;125888;1100;24328;-59
2021/05/03 11:55:11;;;;;;;3.13;0.60;;;;;;;9.21;59.78;100563.33;125911;1100;22926;-59
2021/05/03 11:57:43;;;;;;;1.80;0.50;;;;;;;9.22;59.26;100551.72;126072;1101;22955;-59
2021/05/03 12:00:16;;;;;;;1.83;0.50;;;;;;;9.19;57.86;100571.34;126587;1094;22787;-59
2021/05/03 12:02:46;;;;;;;2.80;0.50;;;;;;;9.07;57.27;100575.82;126268;1101;22758;-59